Time;durP1;ratioP1;P1;durP2;ratioP2;P2;SDS_P1;SDS_P2;PMS_P1;PMS_P2;Temp;Humidity;BMP_temperature;BMP_pressure;BME280_temperature;BME280_humidity;BME280_pressure;Samples;Min_cycle;Max_cycle;Signal;HPM_P1;HPM_P2
2020/12/27 00:01:53;;;;;;;3.20;1.83;;;;;;;3.44;100.00;100008.66;10110813;29;20056;-75
2020/12/27 00:07:09;;;;;;;2.83;1.88;;;;;;;3.34;100.00;99982.03;10123171;29;20455;-75
2020/12/27 00:12:12;;;;;;;3.80;2.05;;;;;;;3.43;100.00;99970.53;10132077;29;20045;-75
2020/12/27 00:17:13;;;;;;;4.38;2.40;;;;;;;3.41;100.00;99995.75;10136437;29;20048;-75
2020/12/27 00:22:15;;;;;;;5.50;2.45;;;;;;;3.32;100.00;99946.50;10134717;29;20043;-75
2020/12/27 00:27:17;;;;;;;4.88;1.80;;;;;;;3.37;100.00;99937.66;10123081;29;20116;-76
2020/12/27 00:32:18;;;;;;;2.60;1.88;;;;;;;3.35;100.00;99923.84;10130609;29;20057;-76
2020/12/27 00:37:25;;;;;;;3.10;1.70;;;;;;;3.33;100.00;99903.97;10133426;29;20036;-76
2020/12/27 00:42:26;;;;;;;3.60;2.10;;;;;;;3.37;100.00;99875.19;10132739;29;20048;-76
2020/12/27 00:47:27;;;;;;;3.13;1.70;;;;;;;3.32;100.00;99871.00;10130964;29;20505;-76
2020/12/27 00:52:28;;;;;;;4.32;2.00;;;;;;;3.25;100.00;99854.72;10132840;29;20056;-75
2020/12/27 00:57:30;;;;;;;3.08;1.65;;;;;;;3.21;100.00;99850.47;10133104;29;20051;-75
2020/12/27 01:02:31;;;;;;;4.53;1.70;;;;;;;3.16;100.00;99834.13;10134103;29;20508;-76
2020/12/27 01:08:15;;;;;;;2.55;1.50;;;;;;;3.20;100.00;99819.28;10133429;29;20060;-75
2020/12/27 01:13:16;;;;;;;2.70;1.55;;;;;;;3.10;100.00;99786.59;10134684;29;20044;-75
2020/12/27 01:18:19;;;;;;;1.98;1.30;;;;;;;3.05;100.00;99779.75;10128787;29;20048;-75
2020/12/27 01:23:25;;;;;;;3.45;1.60;;;;;;;3.05;100.00;99771.97;10135155;29;20045;-75
2020/12/27 01:28:27;;;;;;;2.97;1.48;;;;;;;3.11;100.00;99791.75;10145114;29;20123;-75
2020/12/27 01:33:36;;;;;;;2.72;1.35;;;;;;;3.10;100.00;99771.00;10126367;29;20056;-75
2020/12/27 01:38:37;;;;;;;3.03;1.42;;;;;;;3.12;100.00;99733.59;10141993;29;20112;-75
2020/12/27 01:43:39;;;;;;;2.88;1.30;;;;;;;2.99;100.00;99706.22;10127175;29;20101;-76
2020/12/27 01:48:41;;;;;;;2.40;1.30;;;;;;;2.97;100.00;99685.47;10144044;29;20048;-75
2020/12/27 01:53:48;;;;;;;2.63;1.38;;;;;;;3.03;100.00;99700.88;10126269;29;20055;-75
2020/12/27 01:59:16;;;;;;;4.35;1.73;;;;;;;3.20;100.00;99691.75;10142886;29;20045;-76
2020/12/27 02:04:17;;;;;;;3.03;1.50;;;;;;;3.29;100.00;99668.91;10140711;29;20485;-75
2020/12/27 02:09:22;;;;;;;1.93;1.13;;;;;;;3.40;100.00;99652.97;10129620;29;20358;-76
2020/12/27 02:14:28;;;;;;;1.55;1.10;;;;;;;3.46;100.00;99650.19;10108714;29;20033;-75
2020/12/27 02:19:30;;;;;;;2.05;1.08;;;;;;;3.43;100.00;99599.03;10125818;29;20102;-76
2020/12/27 02:24:36;;;;;;;1.80;0.85;;;;;;;3.56;100.00;99585.66;10125447;29;20068;-75
2020/12/27 02:29:38;;;;;;;1.40;0.70;;;;;;;3.87;100.00;99614.16;10151376;29;20056;-76
2020/12/27 02:34:41;;;;;;;1.33;0.80;;;;;;;3.98;100.00;99539.94;10101742;29;20060;-75
2020/12/27 02:39:42;;;;;;;1.63;0.90;;;;;;;3.92;100.00;99534.94;10136326;29;20080;-76
2020/12/27 02:45:10;;;;;;;1.27;0.65;;;;;;;4.08;100.00;99499.63;10123793;29;20080;-75
2020/12/27 02:50:29;;;;;;;1.05;0.65;;;;;;;3.96;100.00;99450.53;10140853;29;20056;-75
2020/12/27 02:55:31;;;;;;;1.88;0.80;;;;;;;3.96;100.00;99439.28;10140464;29;20049;-75
2020/12/27 03:00:33;;;;;;;3.10;1.00;;;;;;;4.03;100.00;99428.56;10139452;29;20111;-76
2020/12/27 03:05:53;;;;;;;3.58;1.35;;;;;;;3.94;100.00;99382.00;10139106;29;20461;-75
2020/12/27 03:10:55;;;;;;;2.65;1.20;;;;;;;3.88;100.00;99360.53;10103754;29;20057;-75
2020/12/27 03:15:56;;;;;;;2.95;1.15;;;;;;;3.89;100.00;99346.63;10123092;29;20453;-75
2020/12/27 03:21:29;;;;;;;2.15;1.23;;;;;;;3.83;100.00;99315.59;10140532;29;20512;-76
2020/12/27 03:26:30;;;;;;;2.35;1.15;;;;;;;3.91;100.00;99296.16;10138521;29;20122;-76
2020/12/27 03:31:32;;;;;;;4.10;1.27;;;;;;;3.95;100.00;99295.13;10148892;29;20064;-75
2020/12/27 03:36:40;;;;;;;2.28;1.23;;;;;;;3.83;100.00;99253.94;10131536;29;20056;-75
2020/12/27 03:41:50;;;;;;;3.50;1.20;;;;;;;3.73;100.00;99230.00;10108571;29;20443;-75
2020/12/27 03:47:04;;;;;;;1.48;0.90;;;;;;;3.74;100.00;99229.09;10121241;29;20497;-75
2020/12/27 03:52:33;;;;;;;1.80;0.90;;;;;;;3.74;100.00;99210.00;10137524;29;20512;-75
2020/12/27 03:57:53;;;;;;;2.30;1.23;;;;;;;3.72;100.00;99171.00;10121204;29;20241;-75
2020/12/27 04:03:04;;;;;;;2.95;1.20;;;;;;;3.81;100.00;99174.97;10083665;29;20558;-75
2020/12/27 04:08:10;;;;;;;1.85;1.30;;;;;;;3.78;100.00;99142.09;10121017;29;20171;-76
2020/12/27 04:13:15;;;;;;;;;;;;;;;3.85;100.00;99137.47;10122075;29;20052;-75
2020/12/27 04:18:22;;;;;;;3.08;1.30;;;;;;;3.85;100.00;99116.63;10136446;29;19924;-75
2020/12/27 04:23:49;;;;;;;1.08;0.70;;;;;;;3.84;100.00;99096.72;10114633;29;20053;-75
2020/12/27 04:28:52;;;;;;;1.38;0.75;;;;;;;3.68;100.00;99077.44;10121127;29;20049;-75
2020/12/27 04:33:53;;;;;;;1.98;0.60;;;;;;;3.74;100.00;99065.00;10120350;29;20065;-75
2020/12/27 04:39:05;;;;;;;1.23;0.63;;;;;;;3.73;100.00;99045.06;10120177;29;20044;-75
2020/12/27 04:44:13;;;;;;;1.55;0.70;;;;;;;3.65;100.00;99025.47;10121274;29;20139;-76
2020/12/27 04:49:15;;;;;;;1.75;0.70;;;;;;;3.58;100.00;99029.25;10119294;29;20496;-75
2020/12/27 04:54:26;;;;;;;1.60;0.70;;;;;;;3.61;100.00;99027.34;10120530;29;20049;-75
2020/12/27 04:59:45;;;;;;;3.85;1.27;;;;;;;3.67;100.00;99006.28;10128410;29;20059;-75
2020/12/27 05:04:48;;;;;;;0.98;0.70;;;;;;;3.74;100.00;99010.31;10112548;29;20061;-75
2020/12/27 05:09:58;;;;;;;2.17;0.88;;;;;;;3.71;100.00;98975.72;10134542;29;20084;-75
2020/12/27 05:14:59;;;;;;;0.80;0.60;;;;;;;3.66;100.00;98962.06;10133709;29;20413;-75
2020/12/27 05:20:12;;;;;;;1.95;1.35;;;;;;;3.72;100.00;98951.38;10119034;29;20143;-75
2020/12/27 05:25:15;;;;;;;1.20;0.55;;;;;;;3.70;100.00;98941.03;10118702;29;20393;-76
2020/12/27 05:30:43;;;;;;;1.30;0.63;;;;;;;3.72;100.00;98913.16;10131595;29;20061;-75
2020/12/27 05:36:03;;;;;;;1.17;0.50;;;;;;;3.68;100.00;98914.19;10136833;29;20060;-75
2020/12/27 05:41:14;;;;;;;1.02;0.63;;;;;;;3.66;100.00;98891.75;10117668;29;20100;-75
2020/12/27 05:46:25;;;;;;;1.80;0.63;;;;;;;3.90;100.00;98906.31;10119433;29;20104;-75
2020/12/27 05:51:33;;;;;;;1.38;0.68;;;;;;;3.87;100.00;98897.75;10118797;29;20501;-75
2020/12/27 05:56:37;;;;;;;1.92;0.90;;;;;;;3.93;100.00;98869.72;10117719;29;20044;-75
2020/12/27 06:01:53;;;;;;;1.63;0.77;;;;;;;3.87;100.00;98856.94;10134664;29;20056;-75
2020/12/27 06:06:55;;;;;;;2.58;0.80;;;;;;;3.93;100.00;98851.47;10133528;29;20136;-75
2020/12/27 06:12:02;;;;;;;2.50;1.10;;;;;;;3.99;100.00;98821.69;10135676;29;20564;-75
2020/12/27 06:17:16;;;;;;;2.95;0.95;;;;;;;4.06;100.00;98821.31;10125766;29;20056;-75
2020/12/27 06:22:44;;;;;;;2.55;0.77;;;;;;;4.14;100.00;98790.53;10126113;29;20473;-76
2020/12/27 06:27:57;;;;;;;3.85;1.00;;;;;;;4.19;100.00;98778.13;10125093;29;20104;-75
2020/12/27 06:33:20;;;;;;;2.10;1.05;;;;;;;4.15;100.00;98760.13;10125053;29;20065;-75
2020/12/27 06:38:24;;;;;;;1.13;0.63;;;;;;;4.36;100.00;98750.41;10124699;29;20106;-75
2020/12/27 06:43:41;;;;;;;1.73;0.70;;;;;;;4.37;100.00;98728.63;10139490;29;20486;-75
2020/12/27 06:49:11;;;;;;;1.25;0.90;;;;;;;4.39;100.00;98705.94;10124941;29;20116;-75
2020/12/27 06:54:43;;;;;;;1.85;0.75;;;;;;;4.40;100.00;98681.56;10140168;29;20068;-75
2020/12/27 06:59:53;;;;;;;1.77;0.60;;;;;;;4.53;100.00;98678.25;10123296;29;20063;-75
2020/12/27 07:04:58;;;;;;;1.90;1.38;;;;;;;4.37;100.00;98648.66;10124003;29;20136;-76
2020/12/27 07:10:03;;;;;;;1.95;1.27;;;;;;;4.46;100.00;98653.41;10139894;29;20409;-75
2020/12/27 07:15:09;;;;;;;1.35;0.57;;;;;;;4.54;100.00;98655.63;10122951;29;20103;-76
2020/12/27 07:20:17;;;;;;;2.28;0.77;;;;;;;4.62;100.00;98626.53;10122425;29;20095;-75
2020/12/27 07:25:22;;;;;;;4.63;3.53;;;;;;;4.70;100.00;98606.97;10138126;29;20044;-76
2020/12/27 07:30:26;;;;;;;0.40;0.40;;;;;;;4.68;100.00;98587.13;10139406;29;20037;-75
2020/12/27 07:35:28;;;;;;;0.80;0.47;;;;;;;4.63;100.00;98555.22;10134386;29;20060;-75
2020/12/27 07:40:31;;;;;;;1.35;0.47;;;;;;;4.66;100.00;98555.06;10127478;29;20041;-75
2020/12/27 07:45:32;;;;;;;2.47;0.90;;;;;;;4.39;100.00;98500.00;10132983;29;20505;-76
2020/12/27 07:50:33;;;;;;;2.15;0.88;;;;;;;4.40;100.00;98502.53;10135495;29;20440;-75
2020/12/27 07:55:38;;;;;;;1.77;0.70;;;;;;;4.33;100.00;98518.59;10137793;29;20379;-75
2020/12/27 08:00:40;;;;;;;1.80;0.80;;;;;;;4.24;100.00;98487.78;10138620;29;20040;-76
2020/12/27 08:05:41;;;;;;;0.47;0.43;;;;;;;4.28;100.00;98469.28;10137617;29;20393;-75
2020/12/27 08:10:42;;;;;;;2.67;0.52;;;;;;;4.33;100.00;98475.13;10138494;29;20044;-75
2020/12/27 08:15:44;;;;;;;2.33;0.68;;;;;;;4.33;100.00;98461.25;10137866;29;20056;-75
2020/12/27 08:20:50;;;;;;;3.00;0.90;;;;;;;4.30;100.00;98446.59;10137660;29;20048;-75
2020/12/27 08:25:57;;;;;;;1.95;0.88;;;;;;;4.31;100.00;98431.81;10121076;29;20076;-75
2020/12/27 08:30:59;;;;;;;2.47;1.70;;;;;;;4.42;100.00;98447.72;10136636;29;20379;-75
2020/12/27 08:36:00;;;;;;;3.05;0.90;;;;;;;4.42;100.00;98417.28;10137022;29;20064;-75
2020/12/27 08:41:08;;;;;;;4.53;2.15;;;;;;;4.45;100.00;98392.78;10136164;29;20056;-75
2020/12/27 08:46:13;;;;;;;5.20;2.22;;;;;;;4.51;100.00;98382.88;10136696;29;20037;-75
2020/12/27 08:51:15;;;;;;;10.32;4.93;;;;;;;4.56;100.00;98387.81;10136976;29;20113;-75
2020/12/27 08:56:17;;;;;;;7.28;3.47;;;;;;;4.63;100.00;98344.00;10136174;29;20037;-75
2020/12/27 09:01:24;;;;;;;2.58;0.95;;;;;;;4.57;100.00;98314.75;10135700;29;20048;-75
2020/12/27 09:06:25;;;;;;;3.53;1.95;;;;;;;4.59;100.00;98309.44;10136723;29;20044;-75
2020/12/27 09:11:26;;;;;;;3.95;2.35;;;;;;;4.59;100.00;98288.59;10134718;29;20441;-75
2020/12/27 09:16:33;;;;;;;1.77;0.75;;;;;;;4.67;100.00;98283.78;10135631;29;20048;-75
2020/12/27 09:21:38;;;;;;;1.75;1.17;;;;;;;4.68;100.00;98277.63;10132548;29;20501;-75
2020/12/27 09:26:39;;;;;;;2.95;1.98;;;;;;;4.68;100.00;98261.13;10132713;29;20060;-75
2020/12/27 09:31:40;;;;;;;1.13;0.80;;;;;;;4.72;100.00;98249.59;10132723;29;20478;-75
2020/12/27 09:36:41;;;;;;;1.30;0.70;;;;;;;4.65;100.00;98207.38;10132381;29;20057;-75
2020/12/27 09:41:42;;;;;;;3.20;1.17;;;;;;;4.71;100.00;98195.75;10122560;29;20056;-74
2020/12/27 09:46:44;;;;;;;4.50;2.30;;;;;;;4.73;100.00;98167.81;10130247;29;20056;-74
2020/12/27 09:51:46;;;;;;;2.28;1.00;;;;;;;4.84;100.00;98152.38;10114428;29;20552;-73
2020/12/27 09:56:47;;;;;;;3.10;1.48;;;;;;;4.83;100.00;98153.31;10105868;29;20076;-73
2020/12/27 10:01:48;;;;;;;2.40;0.80;;;;;;;4.91;100.00;98136.25;10144320;29;20140;-72
2020/12/27 10:06:49;;;;;;;2.72;1.13;;;;;;;4.87;100.00;98126.06;10143079;29;20118;-73
2020/12/27 10:11:50;;;;;;;3.67;2.22;;;;;;;4.96;100.00;98100.28;10143934;29;20040;-73
2020/12/27 10:16:51;;;;;;;2.50;1.77;;;;;;;4.96;100.00;98079.41;10135165;29;20077;-72
2020/12/27 10:21:53;;;;;;;1.80;1.15;;;;;;;5.00;100.00;98066.19;10142610;29;20052;-72
2020/12/27 10:26:54;;;;;;;3.17;1.05;;;;;;;4.94;100.00;98049.94;10134347;29;20411;-75
2020/12/27 10:32:04;;;;;;;3.00;1.10;;;;;;;4.84;100.00;97978.44;10142009;29;20044;-72
2020/12/27 10:37:06;;;;;;;2.45;1.02;;;;;;;4.82;100.00;97988.13;10141386;29;20049;-72
2020/12/27 10:42:07;;;;;;;2.22;1.15;;;;;;;4.75;100.00;97975.56;10139957;29;20049;-72
2020/12/27 10:47:08;;;;;;;2.70;1.30;;;;;;;4.76;100.00;97979.88;10118520;29;20052;-72
2020/12/27 10:52:09;;;;;;;1.65;0.70;;;;;;;4.73;100.00;97951.34;10107489;29;20402;-73
2020/12/27 10:57:11;;;;;;;1.27;0.82;;;;;;;4.91;100.00;97947.59;10116698;29;20048;-73
2020/12/27 11:02:12;;;;;;;1.25;0.60;;;;;;;4.84;100.00;97905.41;10138840;29;20056;-73
2020/12/27 11:07:13;;;;;;;1.70;1.25;;;;;;;4.88;100.00;97906.03;10140736;29;20052;-74
2020/12/27 11:12:14;;;;;;;0.90;0.60;;;;;;;4.93;100.00;97883.13;10139554;29;20076;-73
2020/12/27 11:17:17;;;;;;;1.13;0.50;;;;;;;4.96;100.00;97907.22;10137762;29;20040;-73
2020/12/27 11:22:19;;;;;;;5.20;2.45;;;;;;;4.90;100.00;97863.28;10132406;29;20139;-73
2020/12/27 11:27:20;;;;;;;7.57;2.40;;;;;;;5.03;100.00;97852.03;10138284;29;20096;-73
2020/12/27 11:32:21;;;;;;;2.33;1.65;;;;;;;5.12;100.00;97848.81;10128908;29;20064;-72
2020/12/27 11:37:22;;;;;;;1.85;1.20;;;;;;;5.02;100.00;97796.41;10132229;29;20043;-73
2020/12/27 11:42:24;;;;;;;5.38;2.17;;;;;;;5.10;100.00;97778.47;10134226;29;20059;-73
2020/12/27 11:47:26;;;;;;;2.10;1.10;;;;;;;5.14;100.00;97768.66;10138262;29;20053;-72
2020/12/27 11:52:27;;;;;;;3.40;0.73;;;;;;;5.17;100.00;97790.16;10139896;29;20075;-73
2020/12/27 11:57:28;;;;;;;2.10;0.95;;;;;;;5.25;99.15;97745.28;10139480;29;20105;-73
2020/12/27 12:02:29;;;;;;;2.13;1.05;;;;;;;5.13;99.42;97704.34;10139721;29;20049;-72
2020/12/27 12:07:31;;;;;;;4.15;2.13;;;;;;;5.16;99.27;97706.75;10168407;29;20048;-73
2020/12/27 12:12:32;;;;;;;6.82;2.70;;;;;;;5.08;100.00;97675.97;10154133;29;20052;-73
2020/12/27 12:17:33;;;;;;;4.55;1.90;;;;;;;4.94;100.00;97665.63;10139619;29;20078;-73
2020/12/27 12:22:34;;;;;;;6.65;3.60;;;;;;;4.73;100.00;97647.09;10119887;29;20049;-73
2020/12/27 12:27:35;;;;;;;2.05;1.10;;;;;;;4.79;100.00;97627.56;10137910;29;20040;-73
2020/12/27 12:32:36;;;;;;;2.30;1.00;;;;;;;4.72;100.00;97634.16;10138548;29;20056;-73
2020/12/27 12:37:37;;;;;;;1.63;0.77;;;;;;;4.74;100.00;97608.81;10134531;29;20063;-72
2020/12/27 12:42:38;;;;;;;1.13;0.73;;;;;;;4.67;100.00;97590.16;10137135;29;20498;-72
2020/12/27 12:47:40;;;;;;;1.70;0.90;;;;;;;4.60;100.00;97577.66;10137140;29;20503;-73
2020/12/27 12:52:41;;;;;;;0.68;0.50;;;;;;;4.47;100.00;97572.41;10130302;29;20048;-73
2020/12/27 12:57:43;;;;;;;0.85;0.50;;;;;;;4.42;100.00;97556.28;10138124;29;20048;-73
2020/12/27 13:02:44;;;;;;;1.02;0.57;;;;;;;4.33;100.00;97560.34;10138382;29;20163;-72
2020/12/27 13:07:45;;;;;;;1.25;0.60;;;;;;;4.25;100.00;97573.06;10131694;29;20528;-72
2020/12/27 13:12:46;;;;;;;0.95;0.60;;;;;;;4.20;100.00;97562.09;10107452;29;20108;-76
2020/12/27 13:17:47;;;;;;;1.15;0.73;;;;;;;4.24;100.00;97536.66;10134595;29;20048;-74
2020/12/27 13:22:49;;;;;;;2.03;1.40;;;;;;;4.33;100.00;97520.41;10123763;29;20052;-74
2020/12/27 13:27:50;;;;;;;1.48;1.05;;;;;;;4.22;100.00;97510.72;10126068;29;20048;-73
2020/12/27 13:32:51;;;;;;;0.65;0.60;;;;;;;4.32;100.00;97519.56;10131684;29;20104;-74
2020/12/27 13:37:53;;;;;;;1.30;0.68;;;;;;;4.27;100.00;97515.63;10132814;29;20478;-73
2020/12/27 13:42:54;;;;;;;1.90;0.70;;;;;;;4.38;100.00;97511.31;10115396;29;20040;-73
2020/12/27 13:47:55;;;;;;;2.42;1.30;;;;;;;4.49;100.00;97482.75;10103106;29;20048;-74
2020/12/27 13:52:56;;;;;;;1.27;0.70;;;;;;;4.40;100.00;97448.69;10133345;29;20045;-75
2020/12/27 13:57:57;;;;;;;2.72;1.10;;;;;;;4.43;100.00;97449.31;10117006;29;20053;-74
2020/12/27 14:02:58;;;;;;;1.20;0.80;;;;;;;4.51;100.00;97449.59;10134561;29;20383;-74
2020/12/27 14:07:59;;;;;;;0.90;0.65;;;;;;;4.54;100.00;97438.09;10133505;29;20059;-73
2020/12/27 14:13:00;;;;;;;0.60;0.60;;;;;;;4.47;100.00;97400.38;10132801;29;20047;-74
2020/12/27 14:18:02;;;;;;;1.20;0.70;;;;;;;4.50;100.00;97415.81;10129403;29;20056;-73
2020/12/27 14:23:03;;;;;;;0.52;0.50;;;;;;;4.50;100.00;97408.00;10095139;29;20049;-74
2020/12/27 14:28:04;;;;;;;0.65;0.50;;;;;;;4.55;100.00;97419.75;10126968;29;20048;-74
2020/12/27 14:33:05;;;;;;;0.47;0.45;;;;;;;4.45;100.00;97386.63;10135785;29;20489;-74
2020/12/27 14:38:06;;;;;;;0.57;0.43;;;;;;;4.44;100.00;97391.00;10139712;29;20075;-73
2020/12/27 14:43:08;;;;;;;6.43;2.80;;;;;;;4.37;100.00;97383.75;10139813;29;20497;-74
2020/12/27 14:48:09;;;;;;;3.97;2.10;;;;;;;4.36;100.00;97369.03;10139853;29;20481;-74
2020/12/27 14:53:11;;;;;;;3.55;1.80;;;;;;;4.39;100.00;97385.31;10135638;29;20131;-73
2020/12/27 14:58:13;;;;;;;3.55;1.80;;;;;;;4.31;100.00;97352.91;10139868;29;20044;-74
2020/12/27 15:03:14;;;;;;;6.60;4.25;;;;;;;4.41;100.00;97364.34;10124094;29;20068;-73
2020/12/27 15:08:15;;;;;;;9.35;5.10;;;;;;;4.50;100.00;97359.31;10122616;29;20417;-74
2020/12/27 15:13:17;;;;;;;7.10;4.65;;;;;;;4.54;100.00;97345.09;10110883;29;20505;-74
2020/12/27 15:18:18;;;;;;;11.15;5.82;;;;;;;4.48;100.00;97340.34;10120942;29;20063;-74
2020/12/27 15:23:20;;;;;;;14.75;9.73;;;;;;;4.49;100.00;97356.81;10139140;29;20067;-75
2020/12/27 15:28:21;;;;;;;9.30;5.93;;;;;;;4.41;100.00;97320.88;10128436;29;20051;-75
2020/12/27 15:33:22;;;;;;;12.30;6.47;;;;;;;4.48;100.00;97309.06;10155438;29;20413;-74
2020/12/27 15:38:24;;;;;;;5.70;3.00;;;;;;;4.51;100.00;97327.09;10172860;29;20056;-75
2020/12/27 15:43:25;;;;;;;5.70;3.92;;;;;;;4.52;100.00;97294.00;10138655;29;20052;-74
2020/12/27 15:48:26;;;;;;;3.95;2.53;;;;;;;4.68;100.00;97291.97;10152284;29;20123;-75
2020/12/27 15:53:27;;;;;;;12.85;5.53;;;;;;;4.71;100.00;97280.47;10135727;29;20128;-75
2020/12/27 15:58:28;;;;;;;3.67;2.10;;;;;;;4.58;100.00;97241.47;10136717;29;20110;-74
2020/12/27 16:03:29;;;;;;;2.85;1.50;;;;;;;4.44;100.00;97237.25;10136593;29;20048;-74
2020/12/27 16:08:30;;;;;;;3.40;1.80;;;;;;;4.48;100.00;97248.28;10095520;29;20053;-75
2020/12/27 16:13:32;;;;;;;3.25;1.40;;;;;;;4.52;100.00;97249.72;10087098;29;20103;-74
2020/12/27 16:18:35;;;;;;;2.35;1.00;;;;;;;4.46;100.00;97222.31;10135092;29;20477;-74
2020/12/27 16:23:40;;;;;;;1.92;1.17;;;;;;;4.48;100.00;97258.72;10138019;29;20164;-75
2020/12/27 16:28:42;;;;;;;2.35;0.80;;;;;;;4.58;100.00;97228.44;10136346;29;20132;-74
2020/12/27 16:33:43;;;;;;;2.28;1.20;;;;;;;4.46;100.00;97198.03;10136845;29;20060;-75
2020/12/27 16:38:45;;;;;;;1.50;0.90;;;;;;;4.44;100.00;97174.69;10118044;29;20401;-76
2020/12/27 16:43:47;;;;;;;1.20;0.73;;;;;;;4.41;100.00;97180.16;10133772;29;20491;-76
2020/12/27 16:48:49;;;;;;;0.75;0.50;;;;;;;4.47;100.00;97173.66;10135086;29;20048;-75
2020/12/27 16:53:50;;;;;;;0.77;0.47;;;;;;;4.39;100.00;97160.34;10135922;29;20096;-76
2020/12/27 16:58:51;;;;;;;1.08;0.68;;;;;;;4.47;100.00;97171.03;10142173;29;20049;-75
2020/12/27 17:03:52;;;;;;;1.45;0.88;;;;;;;4.36;100.00;97153.59;10135791;29;20474;-76
2020/12/27 17:08:54;;;;;;;0.68;0.50;;;;;;;4.34;100.00;97137.25;10119478;29;20048;-75
2020/12/27 17:13:55;;;;;;;0.90;0.60;;;;;;;4.24;100.00;97132.84;10132505;29;20041;-75
2020/12/27 17:18:56;;;;;;;1.10;0.75;;;;;;;4.24;100.00;97151.06;10126713;29;20393;-76
2020/12/27 17:23:57;;;;;;;1.98;1.25;;;;;;;4.01;100.00;97121.53;10132584;29;20413;-76
2020/12/27 17:28:58;;;;;;;1.90;1.63;;;;;;;4.08;100.00;97160.03;10166205;29;20127;-77
2020/12/27 17:33:59;;;;;;;5.75;3.50;;;;;;;3.98;100.00;97132.16;10174438;29;20079;-76
2020/12/27 17:39:00;;;;;;;4.72;2.65;;;;;;;4.02;100.00;97131.81;10158307;29;20048;-76
2020/12/27 17:44:06;;;;;;;1.23;0.85;;;;;;;4.00;100.00;97114.66;10144581;29;20493;-76
2020/12/27 17:49:07;;;;;;;4.28;2.90;;;;;;;4.11;100.00;97107.69;10118958;29;20041;-76
2020/12/27 17:54:11;;;;;;;1.25;0.95;;;;;;;4.17;100.00;97104.66;10134477;29;20037;-76
2020/12/27 17:59:13;;;;;;;0.88;0.65;;;;;;;4.14;100.00;97091.84;10118408;29;20541;-76
2020/12/27 18:04:14;;;;;;;1.48;1.08;;;;;;;4.08;100.00;97065.44;10135043;29;20576;-75
2020/12/27 18:09:15;;;;;;;2.17;1.35;;;;;;;4.14;100.00;97081.41;10123406;29;20052;-76
2020/12/27 18:14:16;;;;;;;1.13;0.68;;;;;;;4.14;100.00;97068.41;10142709;29;20055;-75
2020/12/27 18:19:18;;;;;;;1.13;0.75;;;;;;;4.07;100.00;97054.19;10141595;29;20124;-76
2020/12/27 18:24:19;;;;;;;2.67;1.15;;;;;;;4.12;100.00;97067.66;10176564;29;20044;-76
2020/12/27 18:29:20;;;;;;;2.08;1.20;;;;;;;4.24;100.00;97065.09;10148754;29;20048;-77
2020/12/27 18:34:21;;;;;;;1.67;0.75;;;;;;;4.18;100.00;97064.59;10141859;29;20075;-76
2020/12/27 18:39:22;;;;;;;1.23;0.80;;;;;;;4.06;100.00;97046.47;10140860;29;20049;-76
2020/12/27 18:44:24;;;;;;;1.20;0.77;;;;;;;4.04;100.00;97051.78;10140854;29;20044;-76
2020/12/27 18:49:26;;;;;;;0.60;0.60;;;;;;;4.08;100.00;97070.63;10109207;29;20077;-76
2020/12/27 18:54:27;;;;;;;0.63;0.47;;;;;;;3.99;100.00;97048.72;10122146;29;20052;-76
2020/12/27 18:59:29;;;;;;;1.17;0.60;;;;;;;4.00;100.00;97049.53;10120447;29;20062;-76
2020/12/27 19:04:30;;;;;;;0.70;0.50;;;;;;;4.04;100.00;97059.59;10135381;29;20529;-76
2020/12/27 19:09:31;;;;;;;1.90;1.05;;;;;;;4.04;100.00;97064.81;10142156;29;20044;-76
2020/12/27 19:14:33;;;;;;;1.63;0.90;;;;;;;4.07;100.00;97058.56;10165408;29;20047;-76
2020/12/27 19:19:34;;;;;;;1.20;0.95;;;;;;;4.06;100.00;97047.31;10124816;29;20049;-76
2020/12/27 19:24:35;;;;;;;5.05;2.53;;;;;;;4.03;100.00;97055.34;10163243;29;20052;-75
2020/12/27 19:29:37;;;;;;;1.52;0.82;;;;;;;4.03;100.00;97051.91;10143882;29;20084;-76
2020/12/27 19:34:38;;;;;;;1.27;0.75;;;;;;;4.07;100.00;97053.34;10122857;29;20079;-76
2020/12/27 19:39:43;;;;;;;0.88;0.80;;;;;;;4.03;100.00;97041.47;10137363;29;20045;-75
2020/12/27 19:44:44;;;;;;;1.95;0.90;;;;;;;4.07;100.00;97051.56;10137452;29;20111;-76
2020/12/27 19:49:46;;;;;;;1.10;0.85;;;;;;;4.16;100.00;97056.09;10138645;29;20502;-75
2020/12/27 19:54:47;;;;;;;2.42;1.30;;;;;;;4.00;100.00;97039.13;10122026;29;20057;-76
2020/12/27 19:59:48;;;;;;;1.02;0.70;;;;;;;3.97;100.00;97037.56;10119844;29;20104;-76
2020/12/27 20:04:49;;;;;;;1.88;1.20;;;;;;;3.99;100.00;97040.06;10121152;29;20410;-76
2020/12/27 20:09:51;;;;;;;2.22;1.20;;;;;;;3.97;100.00;97034.13;10114376;29;20512;-76
2020/12/27 20:14:52;;;;;;;1.27;0.70;;;;;;;3.89;100.00;97033.88;10136187;29;20092;-75
2020/12/27 20:19:53;;;;;;;2.38;0.95;;;;;;;3.92;100.00;97044.91;10126491;29;20486;-75
2020/12/27 20:24:55;;;;;;;2.67;1.63;;;;;;;3.93;100.00;97056.16;10120305;29;20044;-75
2020/12/27 20:29:56;;;;;;;1.95;1.02;;;;;;;3.87;100.00;97067.84;10136185;29;20486;-76
2020/12/27 20:34:57;;;;;;;1.77;1.08;;;;;;;3.94;100.00;97048.22;10136037;29;20052;-75
2020/12/27 20:39:58;;;;;;;2.10;0.90;;;;;;;4.19;100.00;97091.47;10116283;29;20052;-75
2020/12/27 20:44:59;;;;;;;2.22;1.25;;;;;;;4.07;100.00;97084.59;10134229;29;20401;-75
2020/12/27 20:50:05;;;;;;;1.75;0.90;;;;;;;4.18;100.00;97093.25;10134044;29;20044;-75
2020/12/27 20:55:06;;;;;;;1.63;1.00;;;;;;;4.06;100.00;97083.75;10124328;29;20048;-75
2020/12/27 21:00:08;;;;;;;1.83;1.05;;;;;;;4.18;100.00;97088.03;10129007;29;20045;-75
2020/12/27 21:05:09;;;;;;;4.03;2.15;;;;;;;4.11;100.00;97079.03;10133771;29;20486;-75
2020/12/27 21:10:10;;;;;;;4.57;2.55;;;;;;;4.19;100.00;97092.31;10104345;29;20064;-75
2020/12/27 21:15:11;;;;;;;3.35;1.40;;;;;;;4.31;100.00;97111.41;10160392;29;20055;-75
2020/12/27 21:20:12;;;;;;;6.90;3.28;;;;;;;4.34;100.00;97098.19;10134356;29;20048;-75
2020/12/27 21:25:13;;;;;;;7.45;3.72;;;;;;;4.44;100.00;97103.50;10117492;29;20425;-76
2020/12/27 21:30:15;;;;;;;4.22;2.22;;;;;;;4.36;100.00;97074.59;10132943;29;20569;-75
2020/12/27 21:35:17;;;;;;;2.05;1.23;;;;;;;4.40;100.00;97083.84;10134457;29;20059;-75
2020/12/27 21:40:18;;;;;;;3.63;1.50;;;;;;;4.46;100.00;97080.75;10116778;29;20449;-75
2020/12/27 21:45:19;;;;;;;1.67;0.80;;;;;;;4.47;100.00;97078.03;10140225;29;20048;-75
2020/12/27 21:50:34;;;;;;;1.25;0.80;;;;;;;4.42;100.00;97067.16;10142757;29;20052;-75
2020/12/27 21:55:35;;;;;;;1.63;1.10;;;;;;;4.42;100.00;97067.16;10142536;29;20055;-75
2020/12/27 22:00:36;;;;;;;2.00;0.95;;;;;;;4.50;100.00;97056.13;10140450;29;20071;-75
2020/12/27 22:05:37;;;;;;;1.00;0.70;;;;;;;4.51;100.00;97052.59;10140982;29;20045;-75
2020/12/27 22:10:39;;;;;;;1.42;0.63;;;;;;;4.56;100.00;97059.09;10141293;29;20064;-76
2020/12/27 22:15:42;;;;;;;2.00;1.17;;;;;;;4.53;100.00;97058.50;10141409;29;20045;-76
2020/12/27 22:20:44;;;;;;;1.35;0.77;;;;;;;4.58;100.00;97059.00;10131157;29;20040;-75
2020/12/27 22:25:47;;;;;;;1.73;1.10;;;;;;;4.55;100.00;97059.22;10119828;29;20041;-75
2020/12/27 22:30:48;;;;;;;1.65;0.85;;;;;;;4.58;100.00;97070.25;10139269;29;20053;-75
2020/12/27 22:35:50;;;;;;;2.13;0.88;;;;;;;4.62;100.00;97042.16;10137446;29;20529;-75
2020/12/27 22:40:51;;;;;;;3.10;1.38;;;;;;;4.60;100.00;97041.47;10132266;29;20036;-75
2020/12/27 22:45:52;;;;;;;5.82;4.20;;;;;;;4.60;100.00;97023.22;10135811;29;20107;-75
2020/12/27 22:50:53;;;;;;;14.57;5.35;;;;;;;4.64;100.00;97034.22;10123087;29;20063;-76
2020/12/27 22:55:55;;;;;;;21.02;6.40;;;;;;;4.63;100.00;97036.00;10133123;29;20066;-75
2020/12/27 23:00:56;;;;;;;20.23;6.90;;;;;;;4.59;100.00;97050.22;10118879;29;20056;-75
2020/12/27 23:05:58;;;;;;;7.72;3.35;;;;;;;4.52;100.00;97049.00;10117044;29;20083;-74
2020/12/27 23:10:59;;;;;;;7.80;3.30;;;;;;;4.50;100.00;97062.19;10110895;29;20049;-75
2020/12/27 23:16:00;;;;;;;4.95;2.13;;;;;;;4.33;100.00;97043.56;10133788;29;20096;-74
2020/12/27 23:21:02;;;;;;;6.00;2.90;;;;;;;4.32;100.00;97044.50;10133271;29;20044;-74
2020/12/27 23:26:03;;;;;;;3.15;1.40;;;;;;;4.30;100.00;97046.41;10134171;29;20041;-75
2020/12/27 23:31:04;;;;;;;3.78;1.70;;;;;;;4.45;100.00;97060.84;10138226;29;20053;-75